Time;durP1;ratioP1;P1;durP2;ratioP2;P2;SDS_P1;SDS_P2;PMS_P1;PMS_P2;Temp;Humidity;BMP_temperature;BMP_pressure;BME280_temperature;BME280_humidity;BME280_pressure;Samples;Min_cycle;Max_cycle;Signal;HPM_P1;HPM_P2
2022/06/16 00:00:23;;;;;;;10.65;7.20;;;;;;;20.06;97.39;98103.22;5097506;28;20028;-76
2022/06/16 00:02:51;;;;;;;12.25;7.50;;;;;;;19.94;98.60;98103.28;5082269;28;20854;-74
2022/06/16 00:05:20;;;;;;;12.25;6.53;;;;;;;19.92;99.71;98094.50;5078390;28;20082;-74
2022/06/16 00:07:45;;;;;;;9.38;6.72;;;;;;;19.85;100.00;98099.84;5091561;28;20473;-74
2022/06/16 00:10:11;;;;;;;8.68;6.85;;;;;;;20.00;99.38;98103.84;5090158;28;20051;-76
2022/06/16 00:12:37;;;;;;;14.25;7.43;;;;;;;20.00;99.34;98101.88;5090355;28;20103;-75
2022/06/16 00:15:05;;;;;;;11.43;6.38;;;;;;;19.96;99.74;98100.94;5091445;28;20032;-75
2022/06/16 00:17:30;;;;;;;7.78;6.28;;;;;;;19.88;100.00;98088.03;5091280;28;20056;-75
2022/06/16 00:19:56;;;;;;;26.90;6.85;;;;;;;19.74;100.00;98087.59;5090919;28;20123;-76
2022/06/16 00:22:21;;;;;;;11.10;6.53;;;;;;;19.67;100.00;98079.09;5090062;28;20035;-76
2022/06/16 00:24:46;;;;;;;7.70;5.60;;;;;;;19.81;100.00;98087.00;5091281;28;20031;-75
2022/06/16 00:27:12;;;;;;;9.13;6.15;;;;;;;19.86;100.00;98098.66;5090065;28;20599;-75
2022/06/16 00:29:37;;;;;;;7.70;6.00;;;;;;;19.75;100.00;98083.69;5091329;28;20008;-75
2022/06/16 00:32:03;;;;;;;9.88;6.65;;;;;;;19.70;100.00;98086.72;5090122;28;20085;-75
2022/06/16 00:34:29;;;;;;;7.88;6.47;;;;;;;19.59;100.00;98097.50;5089738;28;20166;-75
2022/06/16 00:36:56;;;;;;;7.72;6.10;;;;;;;19.52;100.00;98102.00;5091380;28;20111;-76
2022/06/16 00:39:21;;;;;;;8.38;5.57;;;;;;;19.50;100.00;98096.00;5090937;28;20550;-77
2022/06/16 00:41:47;;;;;;;8.63;6.38;;;;;;;19.42;100.00;98083.09;5091163;28;20027;-75
2022/06/16 00:44:36;;;;;;;7.93;6.15;;;;;;;19.35;100.00;98091.97;5090991;28;20031;-76
2022/06/16 00:47:03;;;;;;;10.00;5.85;;;;;;;19.33;100.00;98082.38;5089762;28;20162;-74
2022/06/16 00:49:29;;;;;;;8.88;5.57;;;;;;;19.26;100.00;98083.75;5090694;28;20024;-74
2022/06/16 00:51:58;;;;;;;8.65;5.85;;;;;;;19.20;100.00;98090.69;5089579;28;20389;-75
2022/06/16 00:54:34;;;;;;;8.75;5.85;;;;;;;19.12;100.00;98082.50;5090900;28;20397;-76
2022/06/16 00:57:08;;;;;;;8.30;5.78;;;;;;;19.15;100.00;98077.06;5090906;28;20035;-75
2022/06/16 00:59:36;;;;;;;7.40;5.53;;;;;;;19.17;100.00;98091.38;5091308;28;20120;-76
2022/06/16 01:02:04;;;;;;;7.97;6.30;;;;;;;19.01;100.00;98084.13;5091404;28;20040;-75
2022/06/16 01:07:15;;;;;;;8.43;5.93;;;;;;;19.26;100.00;98086.53;5090715;28;20055;-75
2022/06/16 01:09:43;;;;;;;7.45;5.53;;;;;;;19.22;100.00;98085.63;5089437;28;20052;-76
2022/06/16 01:15:08;;;;;;;8.82;5.65;;;;;;;19.14;100.00;98077.41;5090287;28;20051;-76
2022/06/16 01:17:59;;;;;;;10.45;5.60;;;;;;;19.07;100.00;98085.53;5090304;28;20020;-78
2022/06/16 01:20:37;;;;;;;9.98;6.43;;;;;;;19.05;100.00;98083.09;5090167;28;20126;-76
2022/06/16 01:23:21;;;;;;;6.75;5.93;;;;;;;18.96;100.00;98085.16;5090315;28;20058;-76
2022/06/16 01:26:14;;;;;;;9.18;5.63;;;;;;;18.94;100.00;98087.50;5090326;28;20032;-76
2022/06/16 01:28:48;;;;;;;10.13;5.80;;;;;;;18.85;100.00;98077.66;5090774;28;20028;-76
2022/06/16 01:31:19;;;;;;;9.75;5.72;;;;;;;18.82;100.00;98073.63;5090322;28;20036;-78
2022/06/16 01:33:53;;;;;;;6.97;5.47;;;;;;;18.82;100.00;98079.19;5094561;28;20090;-77
2022/06/16 01:36:33;;;;;;;8.02;5.95;;;;;;;18.80;100.00;98075.09;5094909;28;20028;-77
2022/06/16 01:39:10;;;;;;;8.07;5.53;;;;;;;18.70;100.00;98060.56;5094432;28;20061;-74
2022/06/16 01:42:14;;;;;;;9.55;6.03;;;;;;;18.73;100.00;98064.63;5094378;28;20036;-74
2022/06/16 01:44:48;;;;;;;12.48;5.88;;;;;;;18.84;100.00;98067.72;5091145;28;20037;-75
2022/06/16 01:47:18;;;;;;;9.25;6.00;;;;;;;19.01;100.00;98060.00;5094316;28;20032;-74
2022/06/16 01:49:55;;;;;;;8.38;5.78;;;;;;;19.03;100.00;98068.75;5094154;28;20404;-74
2022/06/16 01:52:27;;;;;;;10.90;6.40;;;;;;;18.82;100.00;98058.97;5094189;28;20028;-74
2022/06/16 01:55:01;;;;;;;8.05;5.75;;;;;;;18.94;100.00;98065.31;5094129;28;20465;-74
2022/06/16 01:57:37;;;;;;;9.17;6.47;;;;;;;18.88;100.00;98058.38;5094087;28;20433;-74
2022/06/16 02:00:21;;;;;;;8.48;5.70;;;;;;;18.95;100.00;98071.66;5094369;28;20253;-75
2022/06/16 02:02:56;;;;;;;8.52;5.70;;;;;;;18.84;100.00;98063.00;5094018;28;20720;-75
2022/06/16 02:05:35;;;;;;;7.38;6.20;;;;;;;18.63;100.00;98048.44;5092907;28;20065;-77
2022/06/16 02:08:09;;;;;;;12.65;6.28;;;;;;;18.67;100.00;98074.28;5094004;28;20408;-76
2022/06/16 02:10:41;;;;;;;10.23;6.50;;;;;;;18.77;100.00;98076.63;5092297;28;20531;-75
2022/06/16 02:13:09;;;;;;;10.60;7.15;;;;;;;18.56;100.00;98064.81;5093953;28;20020;-76
2022/06/16 02:15:40;;;;;;;8.65;7.13;;;;;;;18.45;100.00;98069.19;5093918;28;20439;-75
2022/06/16 02:18:09;;;;;;;8.48;6.13;;;;;;;18.39;100.00;98070.53;5092494;28;20020;-74
2022/06/16 02:20:53;;;;;;;8.80;7.25;;;;;;;18.32;100.00;98076.66;5093843;28;20035;-76
2022/06/16 02:23:19;;;;;;;8.32;6.53;;;;;;;18.35;100.00;98072.38;5092342;28;20039;-75
2022/06/16 02:25:47;;;;;;;8.60;6.80;;;;;;;18.30;100.00;98083.66;5092697;28;20435;-74
2022/06/16 02:28:13;;;;;;;7.65;6.65;;;;;;;18.14;100.00;98086.28;5093620;28;20077;-75
2022/06/16 02:31:05;;;;;;;10.40;7.00;;;;;;;17.96;100.00;98088.41;5093028;28;20067;-74
2022/06/16 02:33:33;;;;;;;8.60;6.28;;;;;;;18.00;100.00;98086.59;5091607;28;20036;-74
2022/06/16 02:35:59;;;;;;;10.02;7.13;;;;;;;17.97;100.00;98081.72;5093640;28;20107;-74
2022/06/16 02:38:50;;;;;;;8.75;6.15;;;;;;;17.95;100.00;98092.31;5093348;28;20197;-75
2022/06/16 02:41:15;;;;;;;10.52;6.82;;;;;;;18.00;100.00;98097.66;5093617;28;20036;-75
2022/06/16 02:44:03;;;;;;;9.30;7.20;;;;;;;17.98;100.00;98094.41;5093668;28;20488;-75
2022/06/16 02:46:41;;;;;;;10.77;7.35;;;;;;;18.06;100.00;98089.94;5087644;28;20102;-74
2022/06/16 02:49:33;;;;;;;8.93;7.35;;;;;;;18.05;100.00;98082.78;5077297;28;20484;-74
2022/06/16 02:51:58;;;;;;;10.73;7.18;;;;;;;18.05;100.00;98094.66;5070464;28;20162;-74
2022/06/16 02:54:58;;;;;;;11.18;7.28;;;;;;;18.04;100.00;98087.50;5091729;28;20501;-73
2022/06/16 02:57:47;;;;;;;9.63;7.07;;;;;;;18.05;100.00;98089.13;5092850;28;20066;-75
2022/06/16 03:00:17;;;;;;;9.43;6.28;;;;;;;18.02;100.00;98087.03;5092601;28;20077;-74
2022/06/16 03:02:43;;;;;;;8.68;6.90;;;;;;;18.05;100.00;98091.91;5091681;28;20112;-74
2022/06/16 03:05:11;;;;;;;9.90;6.80;;;;;;;18.02;100.00;98089.81;5077150;28;20056;-73
2022/06/16 03:07:37;;;;;;;9.98;6.70;;;;;;;18.13;100.00;98093.78;5071376;28;20025;-73
2022/06/16 03:10:04;;;;;;;9.63;6.30;;;;;;;18.13;100.00;98088.25;5071940;28;20463;-72
2022/06/16 03:12:30;;;;;;;10.70;7.30;;;;;;;18.19;100.00;98097.97;5072088;28;20028;-74
2022/06/16 03:14:55;;;;;;;10.05;6.38;;;;;;;18.22;100.00;98092.88;5070957;28;20086;-74
2022/06/16 03:17:21;;;;;;;9.18;6.47;;;;;;;18.14;100.00;98091.81;5072124;28;20433;-74
2022/06/16 03:19:46;;;;;;;8.93;6.47;;;;;;;18.23;100.00;98086.19;5079335;28;20054;-73
2022/06/16 03:22:12;;;;;;;8.75;6.63;;;;;;;18.25;100.00;98075.59;5091129;28;20036;-73
2022/06/16 03:24:37;;;;;;;6.75;5.93;;;;;;;18.35;100.00;98080.69;5091054;28;20020;-73
2022/06/16 03:27:04;;;;;;;8.13;6.25;;;;;;;18.34;100.00;98076.28;5091874;28;20016;-75
2022/06/16 03:29:30;;;;;;;7.45;6.25;;;;;;;18.73;100.00;98081.25;5091643;28;20089;-74
2022/06/16 03:31:55;;;;;;;9.32;6.50;;;;;;;18.96;100.00;98085.16;5091832;28;20032;-74
2022/06/16 03:34:21;;;;;;;7.10;6.03;;;;;;;19.37;100.00;98094.38;5091869;28;20517;-74
2022/06/16 03:36:47;;;;;;;8.93;6.53;;;;;;;19.64;100.00;98088.91;5092253;28;20027;-75
2022/06/16 03:39:13;;;;;;;7.30;5.88;;;;;;;19.73;100.00;98083.25;5091839;28;20028;-74
2022/06/16 03:41:38;;;;;;;8.50;6.40;;;;;;;20.07;100.00;98106.81;5090672;28;20016;-73
2022/06/16 03:44:04;;;;;;;7.75;6.10;;;;;;;20.41;100.00;98094.28;5091923;28;20055;-73
2022/06/16 03:46:29;;;;;;;8.20;5.85;;;;;;;20.85;100.00;98098.63;5091752;28;20063;-74
2022/06/16 03:48:55;;;;;;;8.38;5.85;;;;;;;21.21;100.00;98095.56;5090454;28;20079;-74
2022/06/16 03:51:20;;;;;;;6.68;5.55;;;;;;;21.48;99.45;98093.84;5091655;28;20392;-74
2022/06/16 03:53:46;;;;;;;8.77;5.47;;;;;;;21.50;98.11;98094.25;5090270;28;20020;-74
2022/06/16 03:56:12;;;;;;;6.95;6.03;;;;;;;21.35;98.48;98095.94;5091135;28;20020;-75
2022/06/16 03:58:38;;;;;;;7.35;5.75;;;;;;;21.73;95.90;98091.59;5091723;28;20020;-76
2022/06/16 04:01:04;;;;;;;8.27;4.90;;;;;;;22.08;92.93;98097.94;5090011;28;20162;-73
2022/06/16 04:06:14;;;;;;;7.43;5.63;;;;;;;21.64;96.31;98104.94;5092133;28;20129;-75
2022/06/16 04:08:40;;;;;;;9.63;5.90;;;;;;;21.54;97.59;98091.56;5091234;28;20034;-77
2022/06/16 04:14:11;;;;;;;7.72;5.85;;;;;;;22.69;90.35;98092.38;5091439;28;20051;-75
2022/06/16 04:16:39;;;;;;;7.70;5.30;;;;;;;23.31;86.14;98102.16;5090889;28;20048;-74
2022/06/16 04:19:05;;;;;;;6.97;5.20;;;;;;;22.27;91.28;98085.97;5091383;28;20023;-74
2022/06/16 04:21:32;;;;;;;7.72;5.45;;;;;;;21.62;96.21;98098.88;5091674;28;20117;-76
2022/06/16 04:23:57;;;;;;;7.95;5.63;;;;;;;22.08;94.57;98095.16;5095167;28;20004;-79
2022/06/16 04:26:23;;;;;;;7.30;5.55;;;;;;;23.48;85.30;98094.47;5085180;28;20024;-74
2022/06/16 04:28:49;;;;;;;7.47;5.43;;;;;;;22.72;88.60;98091.63;5069404;28;20515;-76
2022/06/16 04:31:15;;;;;;;8.60;5.78;;;;;;;21.99;93.17;98100.13;5076273;28;20111;-74
2022/06/16 04:33:40;;;;;;;7.75;5.43;;;;;;;21.58;96.61;98086.88;5090777;28;20024;-72
2022/06/16 04:36:06;;;;;;;8.77;5.57;;;;;;;21.26;99.25;98092.53;5091203;28;20031;-74
2022/06/16 04:38:32;;;;;;;7.45;5.82;;;;;;;20.89;100.00;98095.94;5091082;28;20107;-75
2022/06/16 04:41:01;;;;;;;7.55;6.28;;;;;;;20.94;100.00;98093.69;5089055;28;20110;-75
2022/06/16 04:43:28;;;;;;;10.18;5.75;;;;;;;20.88;100.00;98083.19;5084468;28;20021;-80
2022/06/16 04:45:53;;;;;;;8.02;6.32;;;;;;;20.99;100.00;98096.19;5077920;28;20027;-82
2022/06/16 04:48:18;;;;;;;9.18;6.40;;;;;;;21.10;100.00;98088.97;5092466;28;20566;-75
2022/06/16 04:50:44;;;;;;;10.05;6.65;;;;;;;21.05;100.00;98082.84;5098357;28;20042;-84
2022/06/16 04:53:10;;;;;;;9.45;6.90;;;;;;;20.91;100.00;98085.25;5093238;28;20077;-76
2022/06/16 04:55:36;;;;;;;9.80;6.22;;;;;;;20.89;100.00;98082.84;5092831;28;20039;-75
2022/06/16 04:58:02;;;;;;;7.85;6.35;;;;;;;21.32;100.00;98090.28;5093679;28;20044;-79
2022/06/16 05:00:28;;;;;;;7.93;5.95;;;;;;;21.39;99.66;98096.00;5089583;28;20028;-74
2022/06/16 05:02:53;;;;;;;10.18;6.55;;;;;;;21.54;98.05;98086.00;5090940;28;21103;-74
2022/06/16 05:05:19;;;;;;;9.85;6.72;;;;;;;21.31;99.54;98089.47;5090283;28;20070;-75
2022/06/16 05:07:44;;;;;;;9.75;6.45;;;;;;;21.17;100.00;98078.00;5091058;28;20120;-75
2022/06/16 05:10:11;;;;;;;11.15;6.18;;;;;;;21.18;100.00;98079.59;5089580;28;20400;-73
2022/06/16 05:12:37;;;;;;;11.45;6.63;;;;;;;21.49;99.20;98086.28;5089475;28;20404;-77
2022/06/16 05:15:03;;;;;;;8.93;6.38;;;;;;;21.63;97.64;98079.06;5093465;28;20028;-82
2022/06/16 05:17:28;;;;;;;7.47;6.22;;;;;;;21.73;96.89;98094.38;5090768;28;20422;-78
2022/06/16 05:19:54;;;;;;;13.40;6.63;;;;;;;21.40;97.73;98092.03;5079388;28;20080;-82
2022/06/16 05:22:19;;;;;;;9.20;6.40;;;;;;;21.33;99.40;98095.47;5098124;28;20000;-81
2022/06/16 05:24:45;;;;;;;10.63;6.57;;;;;;;21.14;100.00;98101.00;5092446;28;20370;-85
2022/06/16 05:27:10;;;;;;;8.85;6.10;;;;;;;21.35;100.00;98100.69;5095202;28;20020;-79
2022/06/16 05:29:36;;;;;;;8.25;6.20;;;;;;;21.74;97.36;98096.78;5095405;28;20016;-79
2022/06/16 05:32:01;;;;;;;8.63;5.82;;;;;;;21.85;96.20;98097.84;5088924;28;20032;-76
2022/06/16 05:34:27;;;;;;;8.82;6.90;;;;;;;21.69;96.66;98099.88;5089761;28;20433;-74
2022/06/16 05:36:52;;;;;;;9.30;6.53;;;;;;;20.95;100.00;98092.53;5089029;28;20725;-75
2022/06/16 05:39:17;;;;;;;10.80;6.60;;;;;;;21.31;100.00;98111.72;5088369;28;20472;-77
2022/06/16 05:41:45;;;;;;;9.05;6.38;;;;;;;21.39;99.79;98112.72;5088802;28;20040;-79
2022/06/16 05:44:11;;;;;;;15.57;7.40;;;;;;;21.58;98.86;98106.38;5098453;28;20027;-76
2022/06/16 05:46:36;;;;;;;8.88;6.60;;;;;;;21.82;96.80;98098.56;5088979;28;20032;-78
2022/06/16 05:49:03;;;;;;;11.35;6.93;;;;;;;22.12;95.28;98107.16;5088931;28;20054;-78
2022/06/16 05:51:29;;;;;;;9.68;6.10;;;;;;;22.42;92.55;98102.63;5090343;28;20048;-77
2022/06/16 05:53:54;;;;;;;10.50;7.82;;;;;;;22.20;93.16;98114.50;5089010;28;20090;-75
2022/06/16 05:56:20;;;;;;;11.85;7.28;;;;;;;22.23;94.37;98108.19;5089715;28;20528;-75
2022/06/16 05:58:46;;;;;;;9.73;6.90;;;;;;;22.39;92.16;98105.31;5090336;28;20030;-78
2022/06/16 06:01:13;;;;;;;9.60;6.78;;;;;;;22.07;95.03;98092.72;5090133;28;20031;-77
2022/06/16 06:03:40;;;;;;;8.50;6.18;;;;;;;22.36;93.07;98100.50;5089146;28;20028;-78
2022/06/16 06:06:06;;;;;;;9.38;6.63;;;;;;;22.55;91.46;98113.59;5088925;28;20135;-77
2022/06/16 06:16:48;;;;;;;10.68;6.32;;;;;;;23.02;89.41;98116.88;5089807;28;20070;-79
2022/06/16 06:19:24;;;;;;;12.23;6.07;;;;;;;23.55;85.93;98116.94;5093194;28;20016;-81
2022/06/16 06:21:58;;;;;;;7.53;5.75;;;;;;;23.59;86.00;98115.00;5092576;28;20028;-74
2022/06/16 06:24:23;;;;;;;12.10;6.15;;;;;;;23.63;84.91;98115.84;5093713;28;20024;-76
2022/06/16 06:26:48;;;;;;;8.55;6.10;;;;;;;23.73;85.70;98118.78;5093609;28;20122;-75
2022/06/16 06:29:14;;;;;;;12.20;6.22;;;;;;;24.43;80.90;98127.28;5091769;28;20027;-77
2022/06/16 06:31:39;;;;;;;10.27;5.63;;;;;;;25.22;76.41;98121.31;5093285;28;20534;-76
2022/06/16 06:34:04;;;;;;;17.67;5.95;;;;;;;25.03;76.14;98115.94;5091728;28;20433;-74
2022/06/16 06:36:30;;;;;;;9.55;5.93;;;;;;;25.07;76.29;98125.19;5092452;28;20047;-76
2022/06/16 06:38:55;;;;;;;9.77;5.75;;;;;;;25.84;73.36;98127.00;5091937;28;20054;-75
2022/06/16 06:41:22;;;;;;;7.80;6.00;;;;;;;25.58;74.57;98124.41;5091659;28;20032;-76
2022/06/16 06:43:47;;;;;;;6.88;5.70;;;;;;;25.26;74.88;98116.53;5092893;28;20008;-75
2022/06/16 06:46:14;;;;;;;6.40;5.72;;;;;;;24.91;75.94;98121.81;5090981;28;20085;-74
2022/06/16 06:48:39;;;;;;;9.55;6.22;;;;;;;24.74;77.94;98125.25;5092936;28;20016;-75
2022/06/16 06:51:05;;;;;;;11.00;5.85;;;;;;;24.72;76.70;98120.00;5091417;28;20530;-75
2022/06/16 06:53:30;;;;;;;12.55;6.05;;;;;;;24.30;79.18;98105.56;5092885;28;20024;-75
2022/06/16 06:55:55;;;;;;;11.07;6.22;;;;;;;24.28;80.00;98121.91;5093071;28;20500;-75
2022/06/16 06:58:23;;;;;;;13.02;6.50;;;;;;;24.30;80.31;98114.78;5091514;28;20500;-75
2022/06/16 07:00:51;;;;;;;6.47;5.53;;;;;;;24.45;78.62;98116.53;5092627;28;20377;-76
2022/06/16 07:03:17;;;;;;;7.13;5.82;;;;;;;24.75;78.39;98132.44;5092821;28;20017;-74
2022/06/16 07:05:43;;;;;;;7.18;5.97;;;;;;;25.12;75.94;98133.25;5091340;28;20111;-76
2022/06/16 07:08:08;;;;;;;8.88;6.00;;;;;;;25.02;75.83;98129.16;5093069;28;20445;-75
2022/06/16 07:10:33;;;;;;;7.57;5.68;;;;;;;25.09;73.96;98124.81;5091287;28;20510;-75
2022/06/16 07:12:59;;;;;;;10.93;6.22;;;;;;;25.07;74.14;98119.59;5092589;28;20028;-75
2022/06/16 07:15:24;;;;;;;14.93;7.03;;;;;;;24.75;75.60;98129.63;5092393;28;20036;-76
2022/06/16 07:17:50;;;;;;;8.27;6.20;;;;;;;25.14;74.51;98114.06;5092537;28;20106;-73
2022/06/16 07:20:16;;;;;;;6.65;5.47;;;;;;;25.65;72.19;98116.88;5091132;28;20039;-75
2022/06/16 07:22:44;;;;;;;11.07;6.47;;;;;;;25.86;70.13;98110.56;5092388;28;20059;-75
2022/06/16 07:25:11;;;;;;;10.50;6.22;;;;;;;25.41;71.91;98107.06;5090904;28;20484;-75
2022/06/16 07:27:36;;;;;;;13.63;5.82;;;;;;;25.79;71.10;98113.31;5092166;28;20024;-75
2022/06/16 07:30:13;;;;;;;11.48;6.90;;;;;;;25.98;69.76;98105.44;5092241;28;20466;-76
2022/06/16 07:32:38;;;;;;;12.68;6.63;;;;;;;26.60;67.42;98106.06;5090807;28;20077;-74
2022/06/16 07:35:04;;;;;;;9.90;6.22;;;;;;;26.18;67.92;98100.34;5091127;28;20028;-78
2022/06/16 07:37:29;;;;;;;6.85;5.97;;;;;;;26.26;68.21;98106.78;5093280;28;20103;-75
2022/06/16 07:39:54;;;;;;;10.15;5.78;;;;;;;25.74;69.25;98100.50;5092698;28;20027;-77
2022/06/16 07:42:20;;;;;;;8.77;5.82;;;;;;;25.39;70.58;98109.44;5093060;28;20028;-75
2022/06/16 07:44:45;;;;;;;7.43;5.43;;;;;;;25.59;70.33;98107.22;5092046;28;20409;-76
2022/06/16 07:47:10;;;;;;;7.60;5.82;;;;;;;26.08;69.23;98109.47;5090544;28;20016;-75
2022/06/16 07:49:36;;;;;;;8.63;6.13;;;;;;;25.95;68.01;98108.22;5074011;28;20016;-74
2022/06/16 07:52:01;;;;;;;9.20;5.47;;;;;;;26.39;66.85;98114.44;5090207;28;20552;-73
2022/06/16 07:54:28;;;;;;;7.95;6.20;;;;;;;27.26;63.62;98108.59;5090395;28;20032;-75
2022/06/16 07:56:54;;;;;;;9.35;5.63;;;;;;;28.28;60.09;98108.44;5091646;28;20063;-77
2022/06/16 07:59:19;;;;;;;9.10;5.78;;;;;;;30.52;53.10;98103.28;5090220;28;20051;-75
2022/06/16 08:01:44;;;;;;;8.73;5.75;;;;;;;30.78;50.53;98107.38;5090048;28;21472;-74
2022/06/16 08:04:11;;;;;;;9.38;5.78;;;;;;;31.04;49.13;98088.84;5090275;28;20020;-73
2022/06/16 08:06:37;;;;;;;9.05;5.85;;;;;;;31.79;47.34;98095.66;5090551;28;20020;-76
2022/06/16 08:09:05;;;;;;;9.13;5.43;;;;;;;31.07;48.42;98096.47;5091432;28;20499;-74
2022/06/16 08:14:15;;;;;;;8.18;5.53;;;;;;;29.01;52.55;98091.50;5091518;28;20381;-73
2022/06/16 08:16:41;;;;;;;17.55;5.80;;;;;;;28.83;52.37;98066.28;5089952;28;20602;-74
2022/06/16 08:19:07;;;;;;;7.60;5.60;;;;;;;28.52;53.55;98065.25;5090296;28;20024;-73
2022/06/16 08:21:32;;;;;;;8.73;5.13;;;;;;;28.10;53.79;98068.28;5081310;28;20583;-74
2022/06/16 08:23:58;;;;;;;8.25;4.80;;;;;;;28.02;54.64;98067.50;5070848;28;20485;-73
2022/06/16 08:26:24;;;;;;;10.50;5.45;;;;;;;28.59;52.68;98079.31;5071059;28;20107;-73
2022/06/16 08:28:55;;;;;;;8.57;6.15;;;;;;;28.86;51.82;98082.38;5070993;28;20028;-73
2022/06/16 08:31:22;;;;;;;7.70;5.43;;;;;;;29.08;50.33;98072.53;5082574;28;20111;-74
2022/06/16 08:33:49;;;;;;;9.48;5.63;;;;;;;29.04;50.92;98079.44;5088632;28;20039;-74
2022/06/16 08:36:15;;;;;;;7.10;4.88;;;;;;;29.53;49.77;98087.47;5089428;28;20024;-75
2022/06/16 08:38:40;;;;;;;8.65;5.03;;;;;;;30.40;47.80;98092.56;5090101;28;20050;-73
2022/06/16 08:41:12;;;;;;;8.27;5.20;;;;;;;30.55;46.96;98088.31;5083922;28;20036;-74
2022/06/16 08:43:53;;;;;;;8.63;4.55;;;;;;;30.13;46.99;98072.72;5087868;28;20093;-76
2022/06/16 08:46:20;;;;;;;9.07;5.40;;;;;;;29.90;47.84;98072.59;5083664;28;20036;-73
2022/06/16 08:49:14;;;;;;;6.70;4.70;;;;;;;30.29;47.42;98066.47;5085754;28;20028;-74
2022/06/16 08:52:00;;;;;;;7.18;5.05;;;;;;;30.67;46.39;98082.09;5087589;28;20047;-76
2022/06/16 08:54:49;;;;;;;10.93;5.32;;;;;;;30.69;45.64;98067.56;5083917;28;20063;-77
2022/06/16 08:57:24;;;;;;;7.38;5.20;;;;;;;30.75;45.43;98072.31;5085878;28;20023;-79
2022/06/16 08:59:59;;;;;;;8.30;5.15;;;;;;;30.25;46.37;98062.88;5089338;28;20074;-77
2022/06/16 09:02:42;;;;;;;10.63;5.63;;;;;;;30.03;47.24;98072.84;5090297;28;20032;-79
2022/06/16 09:05:39;;;;;;;5.97;4.63;;;;;;;29.31;49.55;98063.50;5080181;28;20447;-76
2022/06/16 09:08:23;;;;;;;5.97;4.57;;;;;;;29.73;48.72;98063.06;5084669;28;20069;-76
2022/06/16 09:10:59;;;;;;;8.90;4.70;;;;;;;29.16;48.88;98062.00;5087300;28;20067;-75
2022/06/16 09:13:43;;;;;;;7.53;4.95;;;;;;;29.72;47.78;98060.69;5094037;28;20415;-78
2022/06/16 09:16:19;;;;;;;6.72;4.65;;;;;;;29.91;46.08;98062.13;5086436;28;20028;-74
2022/06/16 09:18:59;;;;;;;6.63;4.85;;;;;;;30.24;45.53;98055.63;5090840;28;20115;-76
2022/06/16 09:21:49;;;;;;;9.57;4.93;;;;;;;30.29;45.45;98055.97;5077714;28;21315;-78
2022/06/16 09:24:37;;;;;;;7.90;4.90;;;;;;;30.16;45.59;98045.66;5082550;28;20186;-79
2022/06/16 09:27:20;;;;;;;8.50;4.43;;;;;;;30.42;44.86;98038.50;5087434;28;20116;-78
2022/06/16 09:29:48;;;;;;;5.05;4.40;;;;;;;30.85;44.02;98041.47;5085682;28;20024;-78
2022/06/16 09:32:17;;;;;;;5.88;4.70;;;;;;;30.24;44.91;98030.22;5087737;28;20521;-78
2022/06/16 09:35:02;;;;;;;6.15;5.07;;;;;;;29.68;47.09;98026.88;5086702;28;20107;-76
2022/06/16 09:37:51;;;;;;;7.88;4.35;;;;;;;29.51;46.00;98019.38;5091709;28;20037;-79
2022/06/16 09:40:42;;;;;;;5.32;4.25;;;;;;;29.70;46.90;98009.50;5077305;28;20055;-77
2022/06/16 09:43:14;;;;;;;11.65;5.05;;;;;;;28.37;49.29;98010.25;5087814;28;20056;-79
2022/06/16 09:45:48;;;;;;;12.15;4.88;;;;;;;28.76;48.76;97998.72;5090398;28;20063;-78
2022/06/16 09:48:47;;;;;;;8.00;4.68;;;;;;;29.47;47.57;97996.09;5090101;28;20043;-78
2022/06/16 09:51:19;;;;;;;8.88;4.93;;;;;;;30.08;45.76;97996.97;5083236;28;20085;-78
2022/06/16 09:54:17;;;;;;;6.57;4.53;;;;;;;29.62;45.94;97999.53;5094297;28;20040;-76
2022/06/16 09:56:52;;;;;;;6.50;4.22;;;;;;;30.38;44.87;98001.00;5100236;28;20029;-79
2022/06/16 09:59:26;;;;;;;6.15;4.22;;;;;;;30.07;45.76;97992.53;5089668;28;20044;-78
2022/06/16 10:01:59;;;;;;;7.20;4.85;;;;;;;30.16;44.99;97990.03;5094881;28;20036;-75
2022/06/16 10:04:25;;;;;;;7.03;4.45;;;;;;;30.73;44.16;97981.50;5091732;28;20048;-74
2022/06/16 10:07:23;;;;;;;7.43;4.75;;;;;;;30.95;42.51;97986.84;5088588;28;20082;-76
2022/06/16 10:09:54;;;;;;;10.52;4.72;;;;;;;30.59;42.73;97986.59;5041553;28;20511;-75
2022/06/16 10:12:30;;;;;;;6.32;4.97;;;;;;;30.48;43.02;97988.78;5094916;28;20394;-74
2022/06/16 10:15:07;;;;;;;7.40;4.35;;;;;;;30.04;44.28;97982.09;5079794;28;20039;-76
2022/06/16 10:17:35;;;;;;;6.15;4.47;;;;;;;30.21;44.42;97975.41;5086163;28;20357;-79
2022/06/16 10:20:02;;;;;;;6.32;4.90;;;;;;;30.20;44.27;97981.47;5078248;28;20025;-75
2022/06/16 10:22:29;;;;;;;6.15;4.65;;;;;;;30.26;44.05;97988.28;5080306;28;20020;-78
2022/06/16 10:25:01;;;;;;;5.88;4.20;;;;;;;29.94;44.48;97987.91;5086261;28;20058;-75
2022/06/16 10:27:44;;;;;;;5.18;4.28;;;;;;;30.33;44.36;97988.16;5093350;28;20057;-74
2022/06/16 10:30:36;;;;;;;5.63;4.10;;;;;;;30.28;44.05;97986.63;5092682;28;20052;-75
2022/06/16 10:33:17;;;;;;;6.00;4.28;;;;;;;30.20;44.30;97978.66;5088865;28;20453;-75
2022/06/16 10:35:54;;;;;;;6.75;4.93;;;;;;;30.56;44.72;97973.31;5088066;28;20047;-75
2022/06/16 10:38:38;;;;;;;6.53;4.60;;;;;;;30.67;43.71;97974.72;5093017;28;20484;-77
2022/06/16 10:41:21;;;;;;;12.32;4.35;;;;;;;30.24;44.99;97968.91;5094265;28;20028;-77
2022/06/16 10:43:48;;;;;;;6.55;4.28;;;;;;;30.73;44.71;97970.19;5086990;28;20016;-78
2022/06/16 10:46:18;;;;;;;7.60;4.85;;;;;;;30.83;44.23;97971.25;5073659;28;20036;-74
2022/06/16 10:48:52;;;;;;;8.05;4.40;;;;;;;30.88;44.26;97972.78;5073673;28;20405;-75
2022/06/16 10:51:24;;;;;;;6.45;4.57;;;;;;;31.21;44.43;97972.63;5073196;28;20485;-73
2022/06/16 10:54:11;;;;;;;6.45;4.82;;;;;;;31.69;42.83;97966.47;5084221;28;20465;-76
2022/06/16 10:56:38;;;;;;;5.72;4.55;;;;;;;31.86;42.57;97967.31;5091736;28;21497;-77
2022/06/16 10:59:28;;;;;;;6.07;4.15;;;;;;;32.08;41.81;97959.97;5092806;28;20035;-74
2022/06/16 11:02:17;;;;;;;7.22;4.25;;;;;;;32.29;41.15;97958.72;5092833;28;20450;-75
2022/06/16 11:04:43;;;;;;;7.15;5.20;;;;;;;32.31;41.02;97961.91;5091417;28;20036;-72
2022/06/16 11:07:20;;;;;;;6.70;4.60;;;;;;;32.36;41.26;97947.19;5091468;28;20518;-75
2022/06/16 11:09:45;;;;;;;6.07;4.80;;;;;;;32.54;40.71;97953.25;5091152;28;20405;-74
2022/06/16 11:12:21;;;;;;;7.03;4.50;;;;;;;32.47;40.92;97947.75;5092626;28;20024;-73
2022/06/16 11:15:00;;;;;;;5.97;4.45;;;;;;;32.20;41.78;97927.38;5092317;28;20401;-73
2022/06/16 11:17:30;;;;;;;6.03;4.70;;;;;;;31.47;43.23;97908.69;5092478;28;20108;-73
2022/06/16 11:20:13;;;;;;;7.50;4.25;;;;;;;31.68;43.17;97918.78;5091240;28;20066;-74
2022/06/16 11:22:43;;;;;;;5.47;4.53;;;;;;;32.18;42.70;97916.47;5090813;28;20024;-74
2022/06/16 11:25:34;;;;;;;7.28;4.30;;;;;;;32.35;41.24;97929.44;5091981;28;20050;-76
2022/06/16 11:28:20;;;;;;;5.28;4.65;;;;;;;32.55;40.45;97917.22;5091104;28;20030;-76
2022/06/16 11:30:45;;;;;;;5.80;4.10;;;;;;;32.26;40.41;97909.44;5091924;28;20111;-77
2022/06/16 11:36:25;;;;;;;5.50;4.88;;;;;;;31.88;41.69;97887.63;5092282;28;20764;-77
2022/06/16 11:39:12;;;;;;;11.43;5.28;;;;;;;31.46;43.41;97889.31;5092367;28;20032;-77
2022/06/16 11:41:44;;;;;;;6.53;4.57;;;;;;;30.92;42.68;97871.81;5092148;28;20031;-77
2022/06/16 11:44:31;;;;;;;7.32;4.40;;;;;;;31.19;43.37;97869.66;5091404;28;20077;-75
2022/06/16 11:47:10;;;;;;;5.20;4.20;;;;;;;31.07;43.50;97861.84;5088459;28;20027;-78
2022/06/16 11:49:59;;;;;;;11.93;4.63;;;;;;;31.09;44.24;97843.22;5090112;28;20032;-74
2022/06/16 11:52:37;;;;;;;5.22;4.53;;;;;;;31.41;43.26;97844.56;5088865;28;20481;-76
2022/06/16 11:55:41;;;;;;;9.52;4.45;;;;;;;31.50;42.50;97851.28;5086969;28;20104;-75
2022/06/16 11:58:27;;;;;;;9.82;4.60;;;;;;;32.12;41.95;97847.44;5087129;28;20034;-73
2022/06/16 12:01:10;;;;;;;5.20;3.95;;;;;;;32.47;41.38;97844.97;5084693;28;20036;-74
2022/06/16 12:03:48;;;;;;;4.88;4.30;;;;;;;32.29;41.32;97828.44;5090313;28;20048;-74
2022/06/16 12:06:38;;;;;;;6.40;4.75;;;;;;;32.31;42.00;97838.06;5085391;28;20028;-75
2022/06/16 12:09:22;;;;;;;9.85;4.78;;;;;;;32.92;41.14;97845.03;5100432;28;20041;-78
2022/06/16 12:11:59;;;;;;;7.18;4.65;;;;;;;33.16;40.03;97852.06;5096610;28;20051;-79
2022/06/16 12:14:48;;;;;;;6.13;4.57;;;;;;;33.50;39.99;97854.31;5095419;28;20492;-78